Time;durP1;ratioP1;P1;durP2;ratioP2;P2;SDS_P1;SDS_P2;PMS_P1;PMS_P2;Temp;Humidity;BMP_temperature;BMP_pressure;BME280_temperature;BME280_humidity;BME280_pressure;Samples;Min_cycle;Max_cycle;Signal;HPM_P1;HPM_P2
2023/03/17 00:00:36;;;;;;;13.43;4.35;;;;;;;5.66;nan;101754.25;5004549;28;20076;-55
2023/03/17 00:03:04;;;;;;;13.18;4.15;;;;;;;5.64;nan;101749.03;4998951;28;20041;-57
2023/03/17 00:05:32;;;;;;;16.08;4.32;;;;;;;5.69;nan;101735.88;4996820;28;20032;-56
2023/03/17 00:08:09;;;;;;;15.38;5.13;;;;;;;5.75;nan;101730.53;4995281;28;20116;-56
2023/03/17 00:10:35;;;;;;;12.07;4.20;;;;;;;5.78;nan;101734.81;5001690;28;20026;-55
2023/03/17 00:13:02;;;;;;;14.38;4.95;;;;;;;5.80;nan;101733.91;4993785;28;20440;-56
2023/03/17 00:15:28;;;;;;;9.00;4.05;;;;;;;5.84;nan;101733.81;4996512;28;20022;-58
2023/03/17 00:17:55;;;;;;;11.50;4.95;;;;;;;5.84;nan;101734.69;5002697;28;20465;-56
2023/03/17 00:20:29;;;;;;;17.15;5.18;;;;;;;5.85;nan;101725.09;4989585;28;20559;-59
2023/03/17 00:22:58;;;;;;;12.82;3.92;;;;;;;5.80;nan;101720.84;5003534;28;20034;-59
2023/03/17 00:25:28;;;;;;;10.27;4.13;;;;;;;5.73;nan;101719.25;5005553;28;20041;-58
2023/03/17 00:27:55;;;;;;;13.43;4.43;;;;;;;5.70;nan;101713.25;5006617;28;20026;-57
2023/03/17 00:30:22;;;;;;;14.57;5.82;;;;;;;5.62;nan;101719.47;5000536;28;20037;-59
2023/03/17 00:32:50;;;;;;;14.48;5.55;;;;;;;5.54;nan;101720.53;4999125;28;20034;-58
2023/03/17 00:35:25;;;;;;;9.15;3.80;;;;;;;5.43;nan;101719.00;4994577;28;20057;-56
2023/03/17 00:37:55;;;;;;;14.07;5.00;;;;;;;5.31;nan;101712.28;4985860;28;20502;-57
2023/03/17 00:40:31;;;;;;;11.75;5.35;;;;;;;5.24;nan;101715.03;4997939;28;20120;-57
2023/03/17 00:42:58;;;;;;;12.18;5.47;;;;;;;5.15;nan;101701.31;5001603;28;20045;-58
2023/03/17 00:45:25;;;;;;;12.95;4.53;;;;;;;5.10;nan;101699.69;4999526;28;20060;-58
2023/03/17 00:47:54;;;;;;;12.98;4.28;;;;;;;5.04;nan;101693.69;5004016;28;20133;-55
2023/03/17 00:50:23;;;;;;;12.80;4.95;;;;;;;5.02;nan;101686.78;4998822;28;20065;-56
2023/03/17 00:52:50;;;;;;;14.15;4.57;;;;;;;5.01;nan;101679.84;5003349;28;20053;-56
2023/03/17 00:55:18;;;;;;;14.85;5.05;;;;;;;5.01;nan;101677.22;4995885;28;20033;-56
2023/03/17 00:57:45;;;;;;;14.75;5.78;;;;;;;5.03;nan;101675.47;5005850;28;20034;-56
2023/03/17 01:00:26;;;;;;;11.40;4.70;;;;;;;5.09;nan;101669.25;5004353;28;20100;-55
2023/03/17 01:02:53;;;;;;;8.85;3.90;;;;;;;5.15;nan;101674.34;5007180;28;20188;-55
2023/03/17 01:05:20;;;;;;;12.95;4.30;;;;;;;5.19;nan;101671.66;4995787;28;20088;-59
2023/03/17 01:07:51;;;;;;;18.05;5.13;;;;;;;5.24;nan;101662.84;5002764;28;20033;-59
2023/03/17 01:10:24;;;;;;;14.60;4.85;;;;;;;5.27;nan;101663.66;4992289;28;20025;-57
2023/03/17 01:12:51;;;;;;;14.68;4.53;;;;;;;5.31;nan;101661.84;4999864;28;20026;-55
2023/03/17 01:15:17;;;;;;;9.80;4.28;;;;;;;5.32;nan;101659.19;4997251;28;20108;-55
2023/03/17 01:17:44;;;;;;;16.10;5.95;;;;;;;5.32;nan;101653.97;5002120;28;20040;-60
2023/03/17 01:20:16;;;;;;;13.85;5.53;;;;;;;5.31;nan;101654.03;5002718;28;20049;-56
2023/03/17 01:22:42;;;;;;;11.13;4.88;;;;;;;5.25;nan;101654.13;5004827;28;20022;-57
2023/03/17 01:25:09;;;;;;;21.10;5.43;;;;;;;5.18;nan;101643.84;4993753;28;20030;-57
2023/03/17 01:27:35;;;;;;;10.88;4.70;;;;;;;5.18;nan;101643.84;4997022;28;20029;-55
2023/03/17 01:30:01;;;;;;;15.63;5.85;;;;;;;5.16;nan;101632.56;4998338;28;20038;-56
2023/03/17 01:32:27;;;;;;;11.40;4.72;;;;;;;5.13;nan;101624.81;4996058;28;20116;-57
2023/03/17 01:34:52;;;;;;;16.60;5.32;;;;;;;5.09;nan;101623.13;5004126;28;20117;-57
2023/03/17 01:37:18;;;;;;;12.30;4.30;;;;;;;5.07;nan;101618.84;5001401;28;20108;-56
2023/03/17 01:39:44;;;;;;;15.60;6.00;;;;;;;5.02;nan;101614.59;5005578;28;20472;-54
2023/03/17 01:42:10;;;;;;;13.32;4.45;;;;;;;4.99;nan;101611.19;4999036;28;20124;-55
2023/03/17 01:44:56;;;;;;;11.75;5.07;;;;;;;4.91;nan;101598.28;4988942;28;20064;-57
2023/03/17 01:47:25;;;;;;;17.20;4.78;;;;;;;4.87;nan;101612.28;4999775;28;20037;-56
2023/03/17 01:49:51;;;;;;;11.73;4.55;;;;;;;4.81;nan;101612.41;4992304;28;20029;-56
2023/03/17 01:52:20;;;;;;;10.27;4.30;;;;;;;4.78;nan;101608.09;5001483;28;20137;-57
2023/03/17 01:54:55;;;;;;;14.63;4.82;;;;;;;4.73;nan;101615.19;4997623;28;20033;-56
2023/03/17 01:57:24;;;;;;;14.77;5.40;;;;;;;4.72;nan;101610.84;4996206;28;20048;-55
2023/03/17 01:59:58;;;;;;;16.38;6.03;;;;;;;4.71;nan;101611.72;5001456;28;20048;-56
2023/03/17 02:02:31;;;;;;;16.65;5.30;;;;;;;4.72;nan;101608.25;4990890;28;20022;-56
2023/03/17 02:04:57;;;;;;;;;;;;;;;4.70;nan;101604.81;4987461;28;20145;-55
2023/03/17 02:07:25;;;;;;;16.70;5.20;;;;;;;4.76;nan;101609.03;4994373;28;19920;-55
2023/03/17 02:09:52;;;;;;;14.68;5.72;;;;;;;4.79;nan;101602.00;4993771;28;20046;-57
2023/03/17 02:12:19;;;;;;;18.85;6.70;;;;;;;4.81;nan;101602.00;4996932;28;20116;-55
2023/03/17 02:14:45;;;;;;;18.92;6.35;;;;;;;4.84;nan;101581.91;4987891;28;20038;-55
2023/03/17 02:17:11;;;;;;;14.18;5.53;;;;;;;4.88;nan;101587.91;4997531;28;20065;-57
2023/03/17 02:19:37;;;;;;;12.68;5.38;;;;;;;4.89;nan;101589.66;4996025;28;20283;-56
2023/03/17 02:22:03;;;;;;;16.42;5.72;;;;;;;4.88;nan;101587.91;5000688;28;20044;-56
2023/03/17 02:24:37;;;;;;;16.63;6.60;;;;;;;4.88;nan;101591.41;5004502;28;20034;-56
2023/03/17 02:27:12;;;;;;;15.15;6.03;;;;;;;4.89;nan;101597.47;5006832;28;20038;-56
2023/03/17 02:29:38;;;;;;;17.60;5.68;;;;;;;4.87;nan;101600.13;5003481;28;21877;-55
2023/03/17 02:32:04;;;;;;;19.25;6.93;;;;;;;4.85;nan;101587.97;5006385;28;20030;-57
2023/03/17 02:34:31;;;;;;;15.75;5.60;;;;;;;4.81;nan;101597.63;4998255;28;20111;-55
2023/03/17 02:36:57;;;;;;;15.82;6.57;;;;;;;4.75;nan;101596.88;5003923;28;20030;-60
2023/03/17 02:39:23;;;;;;;15.90;5.75;;;;;;;4.73;nan;101602.13;5000238;28;20050;-56
2023/03/17 02:41:49;;;;;;;15.85;6.45;;;;;;;4.74;nan;101598.66;5006475;28;20488;-56
2023/03/17 02:44:15;;;;;;;14.93;6.72;;;;;;;4.72;nan;101597.81;4995794;28;20025;-57
2023/03/17 02:46:41;;;;;;;16.17;6.00;;;;;;;4.69;nan;101592.66;5003426;28;20026;-57
2023/03/17 02:49:07;;;;;;;17.88;6.30;;;;;;;4.66;nan;101582.28;5001965;28;20037;-60
2023/03/17 02:51:32;;;;;;;11.98;5.07;;;;;;;4.64;nan;101582.31;5003759;28;21326;-57
2023/03/17 02:53:58;;;;;;;12.70;5.07;;;;;;;4.56;nan;101579.84;5001219;28;20099;-58
2023/03/17 02:56:24;;;;;;;13.65;5.85;;;;;;;4.53;nan;101566.03;4991669;28;20569;-57
2023/03/17 02:58:49;;;;;;;15.10;6.13;;;;;;;4.51;nan;101568.66;4986121;28;20038;-57
2023/03/17 03:01:16;;;;;;;19.80;6.80;;;;;;;4.52;nan;101565.16;4994809;28;20053;-56
2023/03/17 03:03:41;;;;;;;12.48;5.93;;;;;;;4.49;nan;101560.00;5002550;28;20058;-55
2023/03/17 03:06:07;;;;;;;16.20;6.30;;;;;;;4.48;nan;101545.25;5009252;28;20068;-57
2023/03/17 03:08:33;;;;;;;13.40;5.88;;;;;;;4.45;nan;101547.94;5000429;28;20437;-57
2023/03/17 03:11:01;;;;;;;15.60;5.90;;;;;;;4.47;nan;101556.56;5009536;28;20029;-55
2023/03/17 03:13:27;;;;;;;14.85;5.80;;;;;;;4.49;nan;101560.00;4997959;28;20044;-58
2023/03/17 03:15:52;;;;;;;14.45;6.78;;;;;;;4.53;nan;101560.81;4992793;28;20070;-57
2023/03/17 03:18:18;;;;;;;20.52;7.95;;;;;;;4.54;nan;101558.16;5005183;28;20034;-57
2023/03/17 03:20:44;;;;;;;15.43;7.00;;;;;;;4.59;nan;101550.25;5008170;28;20038;-58
2023/03/17 03:23:11;;;;;;;10.73;6.32;;;;;;;4.64;nan;101535.41;5007783;28;20109;-57
2023/03/17 03:25:37;;;;;;;19.45;6.13;;;;;;;4.65;nan;101537.13;4999137;28;20877;-54
2023/03/17 03:28:05;;;;;;;13.20;6.32;;;;;;;4.72;nan;101533.47;5004486;28;20042;-61
2023/03/17 03:30:32;;;;;;;14.43;7.55;;;;;;;4.78;nan;101529.88;5002284;28;20046;-61
2023/03/17 03:32:58;;;;;;;14.68;6.25;;;;;;;4.84;nan;101534.97;5002269;28;20063;-57
2023/03/17 03:35:23;;;;;;;19.60;6.82;;;;;;;4.87;nan;101540.13;4993662;28;20029;-58
2023/03/17 03:37:49;;;;;;;20.00;7.03;;;;;;;4.88;nan;101548.81;5007632;28;20033;-55
2023/03/17 03:40:14;;;;;;;16.35;6.28;;;;;;;4.91;nan;101546.13;5005807;28;20512;-56
2023/03/17 03:42:40;;;;;;;12.63;5.90;;;;;;;4.94;nan;101545.19;4999929;28;20022;-54
2023/03/17 03:45:06;;;;;;;12.68;5.25;;;;;;;4.97;nan;101545.16;4993711;28;20396;-57
2023/03/17 03:47:32;;;;;;;16.77;5.88;;;;;;;4.98;nan;101539.91;5000307;28;20034;-56
2023/03/17 03:49:57;;;;;;;15.80;6.00;;;;;;;5.00;nan;101534.66;5004203;28;20045;-58
2023/03/17 03:52:23;;;;;;;13.55;5.68;;;;;;;5.03;nan;101524.16;5000045;28;20050;-58
2023/03/17 03:54:48;;;;;;;17.45;6.30;;;;;;;5.03;nan;101517.16;4999075;28;20384;-56
2023/03/17 03:57:14;;;;;;;12.30;5.25;;;;;;;5.03;nan;101521.53;4990299;28;20034;-56
2023/03/17 03:59:39;;;;;;;13.70;6.60;;;;;;;5.03;nan;101524.16;5000193;28;20133;-57
2023/03/17 04:02:05;;;;;;;19.38;6.88;;;;;;;5.01;nan;101526.78;4999622;28;20030;-56
2023/03/17 04:04:31;;;;;;;16.90;6.53;;;;;;;5.00;nan;101534.66;5000191;28;20053;-58
2023/03/17 04:06:57;;;;;;;16.23;5.70;;;;;;;4.95;nan;101550.41;4992594;28;20034;-57
2023/03/17 04:09:22;;;;;;;22.88;6.50;;;;;;;4.92;nan;101549.59;4998362;28;20034;-55
2023/03/17 04:11:47;;;;;;;16.40;7.10;;;;;;;4.88;nan;101565.31;5004212;28;20029;-53
2023/03/17 04:14:13;;;;;;;20.42;7.00;;;;;;;4.83;nan;101558.50;4994389;28;20549;-56
2023/03/17 04:16:39;;;;;;;19.92;7.88;;;;;;;4.78;nan;101555.94;4994755;28;20025;-58
2023/03/17 04:19:05;;;;;;;14.13;6.45;;;;;;;4.74;nan;101551.72;5004511;28;20030;-52
2023/03/17 04:21:31;;;;;;;14.95;6.20;;;;;;;4.75;nan;101555.16;5001408;28;20042;-57
2023/03/17 04:23:57;;;;;;;14.10;6.50;;;;;;;4.73;nan;101556.06;5005106;28;20066;-56
2023/03/17 04:26:23;;;;;;;13.60;5.45;;;;;;;4.74;nan;101554.31;5004409;28;20030;-60
2023/03/17 04:28:48;;;;;;;17.95;6.28;;;;;;;4.75;nan;101543.00;5004612;28;20041;-58
2023/03/17 04:31:14;;;;;;;15.07;5.95;;;;;;;4.78;nan;101550.75;5001691;28;20084;-59
2023/03/17 04:33:40;;;;;;;14.85;5.90;;;;;;;4.78;nan;101550.75;4995750;28;20096;-58
2023/03/17 04:36:06;;;;;;;15.52;6.00;;;;;;;4.79;nan;101555.06;5001464;28;20401;-60
2023/03/17 04:38:32;;;;;;;16.48;5.88;;;;;;;4.79;nan;101541.19;5010339;28;20029;-61
2023/03/17 04:40:58;;;;;;;18.30;6.38;;;;;;;4.80;nan;101551.56;5002633;28;20059;-60
2023/03/17 04:43:23;;;;;;;17.38;5.90;;;;;;;4.79;nan;101552.47;4994992;28;20038;-59
2023/03/17 04:45:48;;;;;;;8.80;3.80;;;;;;;4.78;nan;101545.53;4998217;28;20037;-61
2023/03/17 04:48:14;;;;;;;18.85;8.00;;;;;;;4.77;nan;101540.34;4997381;28;20903;-61
2023/03/17 04:50:41;;;;;;;11.02;5.53;;;;;;;4.76;nan;101534.28;4993023;28;20725;-55
2023/03/17 04:53:08;;;;;;;19.15;5.78;;;;;;;4.74;nan;101528.25;5001052;28;20193;-59
2023/03/17 04:55:34;;;;;;;17.25;7.43;;;;;;;4.77;nan;101525.56;4996956;28;20036;-58
2023/03/17 04:57:59;;;;;;;14.77;6.10;;;;;;;4.75;nan;101524.75;4990814;28;20026;-55
2023/03/17 05:00:25;;;;;;;13.77;5.97;;;;;;;4.74;nan;101533.47;4998103;28;20389;-58
2023/03/17 05:02:50;;;;;;;17.00;6.75;;;;;;;4.75;nan;101534.31;5001985;28;20448;-56
2023/03/17 05:05:16;;;;;;;13.73;5.35;;;;;;;4.67;nan;101532.72;4991879;28;20105;-62
2023/03/17 05:07:43;;;;;;;13.45;6.15;;;;;;;4.70;nan;101537.00;4992277;28;20057;-61
2023/03/17 05:10:10;;;;;;;16.83;6.78;;;;;;;4.71;nan;101536.13;4986247;28;20045;-59
2023/03/17 05:12:35;;;;;;;14.93;6.18;;;;;;;4.68;nan;101528.34;5003339;28;20680;-62
2023/03/17 05:15:01;;;;;;;16.52;7.57;;;;;;;4.66;nan;101511.88;4996281;28;20045;-62
2023/03/17 05:17:26;;;;;;;15.65;5.90;;;;;;;4.70;nan;101523.97;5004569;28;20057;-61
2023/03/17 05:19:52;;;;;;;13.95;5.80;;;;;;;4.73;nan;101510.88;5004064;28;20112;-61
2023/03/17 05:22:18;;;;;;;16.42;6.85;;;;;;;4.74;nan;101520.44;5001410;28;20496;-62
2023/03/17 05:24:44;;;;;;;18.30;5.43;;;;;;;4.75;nan;101519.53;5002665;28;20033;-60
2023/03/17 05:27:09;;;;;;;14.60;6.20;;;;;;;4.74;nan;101517.81;4995267;28;20034;-59
2023/03/17 05:29:35;;;;;;;21.35;6.97;;;;;;;4.74;nan;101507.38;4996438;28;20038;-58
2023/03/17 05:32:00;;;;;;;15.43;6.03;;;;;;;4.77;nan;101507.31;4992975;28;20049;-59
2023/03/17 05:34:26;;;;;;;19.17;6.40;;;;;;;4.76;nan;101512.56;5002349;28;20041;-59
2023/03/17 05:36:51;;;;;;;13.50;6.38;;;;;;;4.80;nan;101506.41;4998412;28;20499;-61
2023/03/17 05:39:17;;;;;;;13.85;5.93;;;;;;;4.85;nan;101525.38;4980672;28;20034;-57
2023/03/17 05:41:42;;;;;;;25.27;6.82;;;;;;;4.82;nan;101526.31;4996910;28;20065;-58
2023/03/17 05:44:08;;;;;;;14.48;5.63;;;;;;;4.84;nan;101540.19;4994203;28;20034;-59
2023/03/17 05:46:33;;;;;;;12.23;5.95;;;;;;;4.84;nan;101526.31;4983586;28;20037;-58
2023/03/17 05:48:59;;;;;;;11.60;3.95;;;;;;;4.86;nan;101522.78;4989442;28;20045;-57
2023/03/17 05:51:24;;;;;;;16.77;5.57;;;;;;;4.88;nan;101515.78;4995538;28;20045;-59
2023/03/17 05:53:50;;;;;;;12.38;5.70;;;;;;;4.91;nan;101493.97;5002457;28;20036;-57
2023/03/17 05:56:19;;;;;;;13.48;6.10;;;;;;;4.96;nan;101499.97;5001307;28;20062;-57
2023/03/17 05:58:45;;;;;;;14.82;6.13;;;;;;;5.01;nan;101505.06;4991291;28;20036;-58
2023/03/17 06:01:10;;;;;;;14.23;6.32;;;;;;;5.02;nan;101506.78;4988096;28;20034;-55
2023/03/17 06:03:37;;;;;;;14.57;5.72;;;;;;;5.09;nan;101510.97;4984605;28;21175;-57
2023/03/17 06:06:04;;;;;;;16.02;6.40;;;;;;;5.13;nan;101504.78;4986620;28;20031;-57
2023/03/17 06:08:29;;;;;;;13.10;5.25;;;;;;;5.16;nan;101486.47;5005240;28;20030;-56
2023/03/17 06:10:55;;;;;;;14.48;5.78;;;;;;;5.22;nan;101476.78;5003963;28;20037;-58
2023/03/17 06:13:21;;;;;;;15.80;5.95;;;;;;;5.29;nan;101483.56;5002164;28;20030;-56
2023/03/17 06:15:50;;;;;;;14.65;6.18;;;;;;;5.38;nan;101485.09;5007319;28;20030;-58
2023/03/17 06:18:16;;;;;;;15.77;6.68;;;;;;;5.44;nan;101495.41;5010389;28;20030;-58
2023/03/17 06:20:42;;;;;;;11.73;5.20;;;;;;;5.55;nan;101502.94;5013212;28;20057;-57
2023/03/17 06:23:08;;;;;;;14.85;6.32;;;;;;;5.61;nan;101505.41;5002587;28;20033;-57
2023/03/17 06:25:34;;;;;;;16.98;6.10;;;;;;;5.67;nan;101510.50;5005001;28;20364;-55
2023/03/17 06:28:02;;;;;;;35.00;7.13;;;;;;;5.73;nan;101489.44;4999221;28;20026;-55
2023/03/17 06:30:28;;;;;;;12.40;5.50;;;;;;;5.78;nan;101490.19;4998271;28;20484;-61
2023/03/17 06:32:55;;;;;;;11.35;5.43;;;;;;;5.82;nan;101482.28;4997091;28;20063;-57
2023/03/17 06:35:21;;;;;;;16.30;6.68;;;;;;;5.87;nan;101477.78;5002618;28;20488;-57
2023/03/17 06:37:47;;;;;;;14.38;6.38;;;;;;;5.92;nan;101487.19;5005877;28;20042;-58
2023/03/17 06:40:12;;;;;;;15.27;6.78;;;;;;;5.92;nan;101484.59;5008167;28;20046;-59
2023/03/17 06:42:38;;;;;;;14.23;6.47;;;;;;;5.96;nan;101488.00;4998874;28;20032;-58
2023/03/17 06:45:04;;;;;;;14.85;6.55;;;;;;;6.01;nan;101490.50;4993947;28;20029;-56
2023/03/17 06:47:30;;;;;;;14.85;5.43;;;;;;;6.00;nan;101487.03;5010653;28;20554;-59
2023/03/17 06:49:55;;;;;;;18.77;6.50;;;;;;;5.99;nan;101490.50;4998199;28;20421;-60
2023/03/17 06:52:21;;;;;;;16.40;5.78;;;;;;;5.99;nan;101487.88;4995217;28;20284;-59
2023/03/17 06:54:46;;;;;;;14.05;5.65;;;;;;;6.01;nan;101483.53;5000165;28;20026;-59
2023/03/17 06:57:12;;;;;;;12.27;5.43;;;;;;;6.04;nan;101472.16;5002919;28;20042;-60
2023/03/17 06:59:37;;;;;;;16.40;7.05;;;;;;;6.08;nan;101484.22;4994564;28;20034;-57
2023/03/17 07:02:04;;;;;;;14.77;6.70;;;;;;;6.13;nan;101486.69;4995783;28;20052;-62
2023/03/17 07:04:30;;;;;;;12.20;5.85;;;;;;;6.22;nan;101489.06;4998093;28;20073;-62
2023/03/17 07:06:56;;;;;;;11.10;5.63;;;;;;;6.29;nan;101488.00;4999215;28;21280;-62
2023/03/17 07:09:22;;;;;;;16.13;7.38;;;;;;;6.43;nan;101484.16;5005541;28;20064;-59
2023/03/17 07:11:47;;;;;;;15.70;6.13;;;;;;;6.54;nan;101490.78;5004572;28;20116;-59
2023/03/17 07:14:13;;;;;;;12.38;6.10;;;;;;;6.61;nan;101480.97;5006713;28;20034;-59
2023/03/17 07:16:39;;;;;;;13.32;6.40;;;;;;;6.69;nan;101479.03;4993761;28;20045;-57
2023/03/17 07:19:04;;;;;;;14.13;5.93;;;;;;;6.74;nan;101484.09;5002797;28;20026;-54
2023/03/17 07:21:30;;;;;;;18.65;7.55;;;;;;;6.80;nan;101480.44;5003742;28;20057;-59
2023/03/17 07:23:55;;;;;;;13.55;6.15;;;;;;;6.89;nan;101482.78;4994416;28;20496;-53
2023/03/17 07:26:21;;;;;;;14.05;6.88;;;;;;;6.94;nan;101470.41;5008662;28;20029;-55
2023/03/17 07:28:46;;;;;;;16.02;6.25;;;;;;;7.00;nan;101465.00;4999882;28;20365;-53
2023/03/17 07:31:13;;;;;;;16.83;6.93;;;;;;;7.08;nan;101459.53;5007337;28;20030;-54
2023/03/17 07:33:40;;;;;;;15.70;6.78;;;;;;;7.12;nan;101453.28;5006712;28;20030;-54
2023/03/17 07:36:06;;;;;;;15.23;6.43;;;;;;;7.22;nan;101461.69;5001668;28;20489;-54
2023/03/17 07:38:32;;;;;;;21.83;7.05;;;;;;;7.30;nan;101466.69;4999497;28;20103;-55
2023/03/17 07:40:58;;;;;;;15.77;6.40;;;;;;;7.33;nan;101462.19;4997049;28;20022;-55
2023/03/17 07:43:24;;;;;;;12.48;5.97;;;;;;;7.41;nan;101451.47;5005913;28;20459;-57
2023/03/17 07:45:50;;;;;;;15.70;6.38;;;;;;;7.47;nan;101453.06;5004421;28;20113;-56
2023/03/17 07:48:16;;;;;;;15.60;6.63;;;;;;;7.50;nan;101437.22;5004486;28;20026;-55
2023/03/17 07:50:43;;;;;;;16.20;6.72;;;;;;;7.56;nan;101437.03;5006629;28;20022;-57
2023/03/17 07:53:09;;;;;;;18.25;6.38;;;;;;;7.62;nan;101436.81;5004979;28;20041;-54
2023/03/17 07:55:36;;;;;;;13.82;6.13;;;;;;;7.71;nan;101432.16;5009928;28;20018;-58
2023/03/17 07:58:01;;;;;;;14.48;6.47;;;;;;;7.80;nan;101429.22;5002431;28;20038;-58
2023/03/17 08:00:27;;;;;;;16.60;6.95;;;;;;;7.83;nan;101405.53;5000567;28;20034;-56
2023/03/17 08:02:53;;;;;;;16.05;6.32;;;;;;;7.84;nan;101403.78;5002966;28;20440;-57
2023/03/17 08:05:18;;;;;;;16.10;7.22;;;;;;;7.83;nan;101396.81;5003157;28;20488;-56
2023/03/17 08:07:44;;;;;;;15.20;6.38;;;;;;;7.81;nan;101383.75;4988905;28;20515;-53
2023/03/17 08:10:12;;;;;;;24.70;7.07;;;;;;;7.78;nan;101386.53;4992332;28;20031;-53
2023/03/17 08:12:38;;;;;;;17.17;7.85;;;;;;;7.76;nan;101385.72;5008986;28;20033;-53
2023/03/17 08:15:05;;;;;;;21.98;6.30;;;;;;;7.71;nan;101382.38;5001824;28;20481;-54
2023/03/17 08:17:31;;;;;;;16.92;6.70;;;;;;;7.70;nan;101383.28;5007089;28;20038;-53
2023/03/17 08:19:57;;;;;;;16.80;6.38;;;;;;;7.63;nan;101380.91;4995405;28;20396;-56
2023/03/17 08:22:23;;;;;;;13.82;6.15;;;;;;;7.60;nan;101370.53;5004986;28;20034;-56
2023/03/17 08:24:49;;;;;;;14.57;6.32;;;;;;;7.57;nan;101357.53;5004469;28;20034;-55
2023/03/17 08:27:15;;;;;;;14.02;6.10;;;;;;;7.59;nan;101357.47;5006368;28;20458;-55
2023/03/17 08:29:41;;;;;;;16.27;5.88;;;;;;;7.61;nan;101360.91;5001097;28;20029;-55
2023/03/17 08:32:07;;;;;;;6.63;3.33;;;;;;;7.65;nan;101366.88;4989984;28;20072;-53
2023/03/17 08:34:33;;;;;;;15.45;6.38;;;;;;;7.73;nan;101359.63;5002875;28;20025;-55
2023/03/17 08:37:00;;;;;;;11.43;6.20;;;;;;;7.85;nan;101379.28;4994255;28;20101;-60
2023/03/17 08:39:25;;;;;;;13.82;5.97;;;;;;;8.00;nan;101372.63;4989768;28;20485;-55
2023/03/17 08:41:51;;;;;;;14.95;6.75;;;;;;;8.08;nan;101387.16;4998567;28;20096;-53
2023/03/17 08:44:17;;;;;;;14.55;5.68;;;;;;;8.22;nan;101397.13;4999401;28;20520;-59
2023/03/17 08:46:43;;;;;;;11.55;6.25;;;;;;;8.33;nan;101401.13;5007613;28;20036;-55
2023/03/17 08:49:09;;;;;;;16.40;6.13;;;;;;;8.48;nan;101397.06;5000320;28;21339;-57
2023/03/17 08:51:36;;;;;;;12.13;5.45;;;;;;;8.62;nan;101396.56;5005602;28;20036;-56
2023/03/17 08:54:02;;;;;;;13.52;6.80;;;;;;;8.73;nan;101389.09;5002313;28;21400;-56
2023/03/17 08:56:28;;;;;;;9.52;5.85;;;;;;;8.86;nan;101376.34;5001115;28;20117;-53
2023/03/17 08:58:54;;;;;;;13.95;5.60;;;;;;;9.00;nan;101381.03;5006830;28;20030;-54
2023/03/17 09:01:20;;;;;;;14.70;4.88;;;;;;;9.10;nan;101382.38;5008196;28;20042;-55
2023/03/17 09:03:46;;;;;;;24.83;9.70;;;;;;;9.19;nan;101390.78;4999130;28;20095;-57
2023/03/17 09:06:12;;;;;;;19.45;7.25;;;;;;;9.25;nan;101382.66;4998127;28;20109;-57
2023/03/17 09:08:40;;;;;;;13.32;6.20;;;;;;;9.30;nan;101393.84;4996086;28;20045;-57
2023/03/17 09:11:09;;;;;;;17.77;6.43;;;;;;;9.37;nan;101386.56;4993948;28;20112;-57
2023/03/17 09:13:36;;;;;;;14.40;5.93;;;;;;;9.38;nan;101383.84;5005603;28;20124;-58
2023/03/17 09:16:02;;;;;;;12.68;5.55;;;;;;;9.40;nan;101362.75;5003843;28;20026;-54
2023/03/17 09:18:30;;;;;;;12.77;5.53;;;;;;;9.40;nan;101362.75;5003129;28;20404;-55
2023/03/17 09:20:56;;;;;;;11.55;5.97;;;;;;;9.42;nan;101358.28;5004681;28;20022;-58
2023/03/17 09:23:22;;;;;;;14.43;6.15;;;;;;;9.42;nan;101367.03;4993130;28;20812;-58
2023/03/17 09:25:48;;;;;;;13.70;6.03;;;;;;;9.43;nan;101368.75;4997486;28;20168;-56
2023/03/17 09:28:13;;;;;;;13.40;5.47;;;;;;;9.45;nan;101366.88;4996923;28;20037;-57
2023/03/17 09:30:41;;;;;;;13.95;4.80;;;;;;;9.48;nan;101359.78;4999366;28;20038;-58
2023/03/17 09:33:10;;;;;;;15.32;5.40;;;;;;;9.52;nan;101350.88;4995211;28;20032;-59
2023/03/17 09:35:36;;;;;;;9.25;5.43;;;;;;;9.52;nan;101338.59;4998270;28;20107;-56
2023/03/17 09:38:02;;;;;;;12.90;6.13;;;;;;;9.54;nan;101333.28;4990873;28;20037;-57
2023/03/17 09:40:59;;;;;;;14.52;6.43;;;;;;;9.60;nan;101330.38;5004062;28;20093;-57
2023/03/17 09:43:39;;;;;;;9.65;4.43;;;;;;;9.67;nan;101323.91;5004084;28;20022;-56
2023/03/17 09:46:34;;;;;;;12.18;4.20;;;;;;;9.74;nan;101324.50;4998134;28;20029;-56
2023/03/17 09:49:07;;;;;;;11.10;5.50;;;;;;;9.85;nan;101316.13;4995809;28;20069;-58
2023/03/17 09:51:34;;;;;;;9.60;3.85;;;;;;;9.94;nan;101315.69;4998028;28;20022;-56
2023/03/17 09:54:18;;;;;;;13.45;5.70;;;;;;;10.03;nan;101317.94;5003674;28;20048;-55
2023/03/17 09:56:50;;;;;;;10.38;4.93;;;;;;;10.11;nan;101328.09;5002073;28;20030;-56
2023/03/17 09:59:28;;;;;;;;;;;;;;;10.17;nan;101316.44;4994897;28;20041;-56
2023/03/17 10:01:53;;;;;;;10.52;4.45;;;;;;;10.25;nan;101316.06;4993875;28;19920;-57
2023/03/17 10:04:19;;;;;;;10.15;3.80;;;;;;;10.31;nan;101308.75;5002841;28;20034;-55
2023/03/17 10:06:46;;;;;;;11.00;4.18;;;;;;;10.41;nan;101308.31;4996371;28;20030;-54
2023/03/17 10:09:35;;;;;;;10.80;4.82;;;;;;;10.53;nan;101302.47;5003864;28;20045;-55
2023/03/17 10:12:06;;;;;;;8.07;4.13;;;;;;;10.67;nan;101297.38;4998171;28;20462;-55
2023/03/17 10:14:39;;;;;;;10.63;4.30;;;;;;;10.73;nan;101300.63;4995731;28;20018;-56
2023/03/17 10:17:15;;;;;;;9.48;3.67;;;;;;;10.75;nan;101301.41;4996592;28;20117;-57
2023/03/17 10:19:55;;;;;;;9.80;4.45;;;;;;;10.70;nan;101298.16;4995066;28;20045;-57
2023/03/17 10:22:44;;;;;;;11.02;4.32;;;;;;;10.67;nan;101300.00;4995693;28;20080;-58
2023/03/17 10:25:17;;;;;;;7.68;3.65;;;;;;;10.65;nan;101301.88;4999275;28;20026;-57
2023/03/17 10:27:50;;;;;;;7.93;4.30;;;;;;;10.65;nan;101304.50;4997111;28;20034;-56
2023/03/17 10:30:19;;;;;;;11.32;4.10;;;;;;;10.73;nan;101305.91;4995623;28;20046;-55
2023/03/17 10:32:47;;;;;;;9.25;4.25;;;;;;;10.80;nan;101302.06;4997947;28;20022;-58
2023/03/17 10:35:15;;;;;;;8.95;4.72;;;;;;;10.91;nan;101297.09;4998876;28;20041;-56
2023/03/17 10:37:41;;;;;;;9.73;5.00;;;;;;;11.03;nan;101298.25;4999649;28;20037;-55
2023/03/17 10:40:10;;;;;;;12.07;5.28;;;;;;;11.12;nan;101296.91;5005301;28;20168;-56
2023/03/17 10:42:52;;;;;;;11.45;4.53;;;;;;;11.15;nan;101290.66;5002963;28;20083;-58
2023/03/17 10:45:28;;;;;;;11.75;4.82;;;;;;;11.15;nan;101304.66;5006083;28;20388;-58
2023/03/17 10:47:56;;;;;;;8.65;4.35;;;;;;;11.11;nan;101297.88;5001151;28;20382;-55
2023/03/17 10:50:27;;;;;;;9.40;4.35;;;;;;;11.05;nan;101303.44;5002587;28;20106;-57
2023/03/17 10:53:06;;;;;;;13.20;5.25;;;;;;;11.03;nan;101302.66;5005143;28;20594;-60
2023/03/17 10:55:37;;;;;;;13.05;4.35;;;;;;;11.02;nan;101303.59;5000237;28;20034;-56
2023/03/17 10:58:03;;;;;;;7.60;4.60;;;;;;;11.03;nan;101307.94;5007319;28;20034;-56
2023/03/17 11:00:34;;;;;;;12.82;4.20;;;;;;;11.05;nan;101300.81;5007928;28;20265;-55
2023/03/17 11:03:09;;;;;;;9.68;3.88;;;;;;;11.07;nan;101302.41;5006032;28;20044;-57
2023/03/17 11:05:37;;;;;;;11.35;4.15;;;;;;;11.09;nan;101297.09;5008978;28;20014;-57
2023/03/17 11:08:13;;;;;;;9.13;4.30;;;;;;;11.12;nan;101294.28;5006158;28;20030;-58
2023/03/17 11:10:40;;;;;;;10.48;4.35;;;;;;;11.12;nan;101283.75;5003429;28;20045;-57
2023/03/17 11:13:07;;;;;;;12.25;4.32;;;;;;;11.17;nan;101276.47;5006217;28;20034;-57
2023/03/17 11:15:36;;;;;;;7.38;3.45;;;;;;;11.19;nan;101279.88;4998062;28;20481;-57
2023/03/17 11:18:12;;;;;;;8.02;4.03;;;;;;;11.19;nan;101269.34;4997354;28;20030;-56
2023/03/17 11:20:53;;;;;;;10.82;4.20;;;;;;;11.21;nan;101271.88;4997899;28;20034;-56
2023/03/17 11:23:45;;;;;;;11.00;4.90;;;;;;;11.21;nan;101279.78;4994805;28;20053;-56
2023/03/17 11:26:40;;;;;;;9.73;3.92;;;;;;;11.26;nan;101286.53;4992392;28;20418;-57
2023/03/17 11:29:26;;;;;;;10.60;4.15;;;;;;;11.28;nan;101279.38;4997187;28;20579;-58
2023/03/17 11:32:03;;;;;;;9.68;4.53;;;;;;;11.33;nan;101286.22;5003081;28;20088;-57
2023/03/17 11:34:32;;;;;;;8.65;3.75;;;;;;;11.38;nan;101268.38;4996331;28;20030;-55
2023/03/17 11:37:14;;;;;;;8.40;3.67;;;;;;;11.48;nan;101261.69;5005282;28;20048;-55
2023/03/17 11:40:28;;;;;;;9.03;4.77;;;;;;;11.57;nan;101260.34;4994551;28;20029;-57
2023/03/17 11:43:21;;;;;;;11.05;3.60;;;;;;;11.67;nan;101258.06;4956076;28;20138;-55
2023/03/17 11:46:05;;;;;;;10.35;4.20;;;;;;;11.71;nan;101260.44;4956635;28;20107;-56